메인 페이지
METAR-TAF:

METAR-TAF

공항 :

시라즈, 이란

위도: 29-32N, 경도: 052-35E, 고도: 1486m

현재 날씨관측

예보는 16분 전, 22:30시(UTC)에 발표되었습니다.
무풍
온도 20°C
습도 40%
기압 1017 hPa
시정: 8000m
고도 4000ft 상공 구름 조금

METAR: OISS 012230Z 00000KT 8000 FEW040 20/06 Q1017 A3004

시각: 03:16 (22:46 UTC)

예보

예보는 5 시간 16분 전, 17:30시(UTC)에 발표되었습니다.
예보 대상 시간: 01일 18시부터 02일 24시까지 (UTC)
6kt
시정: 7000m
고도 4000ft 상공 구름 조금
전환 중
02일 09시부터 02일 10시까지 (UTC)
동남동8kt
고도 4000ft 상공 구름 조금, 타워링 적운.
일시적
02일 12시부터 02일 18시까지 (UTC)
서북서18kt, 순간 최대 풍속 28kt
고도 3500ft 상공 구름 보통, 적란운.
고도 4000ft 상공 구름 보통, 타워링 적운.
전환 중
02일 19시부터 02일 20시까지 (UTC)
6kt
고도 4000ft 상공 구름 조금

TAF: OISS 011730Z 0118/0224 27006KT 7000 FEW040 BECMG 0209/0210 12008KT FEW040TCU TEMPO 0212/0218 30018G28KT TSSHRA SCT035CB SCT040TCU BECMG 0219/0220 27006KT FEW040

4,000개 이상의 공항 관측 자료 및 예보 (METAR 및 TAF 보고).

지도상에서 검색 가능한 기상관측소가 노란 점과 빨간 점으로 표시되어 있습니다.

기상관측소 명을 보려면 표시 위로 마우스를 이동하세요.

날씨 관측과 예보를 보려면 클릭하세요.

지도 변경 : 확대하려면 엑스 표시가 있는 녹색 버튼, 축소하려면 빼기 표시가 있는 녹색 버튼, 다음 페이지의 지도를 보려면 녹색 화살표를 클릭하세요.


METAR-TAF: